TimeCST,TemperatureF,Dew PointF,Humidity,Sea Level PressureIn,VisibilityMPH,Wind Direction,Wind SpeedMPH,Gust SpeedMPH,PrecipitationIn,Events,Conditions,WindDirDegrees,DateUTC
12:55 AM,23.0,19.0,85,30.05,9.0,South,3.5,-,N/A,,Clear,170,2013-11-30 06:55:00
1:55 AM,19.9,18.0,92,30.05,7.0,Calm,Calm,-,N/A,,Clear,0,2013-11-30 07:55:00
2:55 AM,18.0,15.1,88,30.06,8.0,Calm,Calm,-,N/A,,Clear,0,2013-11-30 08:55:00
3:55 AM,18.0,15.1,88,30.08,8.0,Calm,Calm,-,N/A,,Clear,0,2013-11-30 09:55:00
4:55 AM,19.0,17.1,92,30.10,8.0,NW,6.9,-,N/A,,Clear,320,2013-11-30 10:55:00
5:55 AM,17.1,14.0,88,30.11,10.0,NNW,6.9,-,N/A,,Clear,330,2013-11-30 11:55:00
6:55 AM,19.0,16.0,88,30.12,10.0,NW,3.5,-,N/A,,Clear,310,2013-11-30 12:55:00
7:55 AM,17.1,14.0,88,30.15,10.0,NW,5.8,-,N/A,,Clear,310,2013-11-30 13:55:00
8:55 AM,23.0,19.0,85,30.17,8.0,NW,4.6,-,N/A,,Clear,310,2013-11-30 14:55:00
9:55 AM,28.9,24.1,82,30.18,10.0,NW,8.1,-,N/A,,Clear,310,2013-11-30 15:55:00
10:55 AM,33.1,24.1,70,30.19,10.0,North,11.5,-,N/A,,Clear,360,2013-11-30 16:55:00
11:55 AM,37.9,25.0,60,30.17,10.0,North,9.2,-,N/A,,Clear,10,2013-11-30 17:55:00
12:55 PM,35.1,23.0,61,30.18,10.0,NNW,10.4,-,N/A,,Clear,340,2013-11-30 18:55:00
1:55 PM,37.0,24.1,59,30.17,10.0,North,8.1,-,N/A,,Clear,350,2013-11-30 19:55:00
2:55 PM,37.9,23.0,55,30.17,10.0,North,9.2,-,N/A,,Clear,360,2013-11-30 20:55:00
3:55 PM,37.9,24.1,57,30.18,10.0,North,5.8,-,N/A,,Clear,10,2013-11-30 21:55:00
4:55 PM,36.0,24.1,62,30.19,10.0,North,4.6,-,N/A,,Partly Cloudy,350,2013-11-30 22:55:00
5:55 PM,34.0,23.0,64,30.21,10.0,Calm,Calm,-,N/A,,Mostly Cloudy,0,2013-11-30 23:55:00
6:55 PM,30.9,21.9,69,30.22,7.0,NW,3.5,-,N/A,,Clear,310,2013-12-01 00:55:00
7:55 PM,30.9,23.0,72,30.22,9.0,Calm,Calm,-,N/A,,Overcast,0,2013-12-01 01:55:00
8:55 PM,28.9,21.9,75,30.23,8.0,Calm,Calm,-,N/A,,Scattered Clouds,0,2013-12-01 02:55:00
9:55 PM,28.9,21.9,75,30.23,8.0,West,4.6,-,N/A,,Partly Cloudy,280,2013-12-01 03:55:00
10:55 PM,30.9,24.1,76,30.22,9.0,Calm,Calm,-,N/A,,Overcast,0,2013-12-01 04:55:00
11:55 PM,30.9,24.1,76,30.22,10.0,Calm,Calm,-,N/A,,Overcast,0,2013-12-01 05:55:00